Crosby, Minnesota
Current Conditions -  °F | °C
As of 5:09 AM on Thursday 23 Oct 2014 (Local Time) from KBRD Reporting Station
Haze Haze  
Wind Chill: 46°   Ceiling: 200
Heat Index: 49°   Visibility: 0.75mi
Dew Point: 49°   Wind: 7mph
Humidity: 100%   Direction: 190°S
Pressure: 29.94"   Gusts: NA
Location:  46.48°N, 93.96°W
Report Text: KBRD 231009Z AUTO 19006KT 3/4SM BR OVC002 09/09 A2994 RMK AO2 T00940094
Loading
Personal Weather Stations






























Interactive Weather Map
Tropical Storm Tracking
New forecast layout! Learn more

10-Day Weather Forecast

Advertisements
Track Severe Weather on mobile